sensor_id;sensor_type;location;lat;lon;timestamp;noise_LAeq;noise_LA_min;noise_LA_max;noise_LA01;noise_LA95
4048;Laerm;2038;51.728;6.674;2023-04-01T00:01:06;43.15;40.53;55.37;;
4048;Laerm;2038;51.728;6.674;2023-04-01T00:03:33;42.46;40.43;45.17;;
4048;Laerm;2038;51.728;6.674;2023-04-01T00:06:00;43.22;40.33;55.51;;
4048;Laerm;2038;51.728;6.674;2023-04-01T00:08:28;42.38;40.23;44.03;;
4048;Laerm;2038;51.728;6.674;2023-04-01T00:10:55;42.45;40.43;44.35;;
4048;Laerm;2038;51.728;6.674;2023-04-01T00:13:28;42.47;40.43;44.31;;
4048;Laerm;2038;51.728;6.674;2023-04-01T00:15:55;42.33;40.33;44.03;;
4048;Laerm;2038;51.728;6.674;2023-04-01T00:18:23;44.24;40.43;58.54;;
4048;Laerm;2038;51.728;6.674;2023-04-01T00:20:51;43.31;40.53;57.01;;
4048;Laerm;2038;51.728;6.674;2023-04-01T00:23:19;42.59;40.53;44.54;;
4048;Laerm;2038;51.728;6.674;2023-04-01T00:25:47;42.87;40.62;52.04;;
4048;Laerm;2038;51.728;6.674;2023-04-01T00:28:17;44.23;39.68;59.70;;
4048;Laerm;2038;51.728;6.674;2023-04-01T00:30:44;43.77;40.62;55.30;;
4048;Laerm;2038;51.728;6.674;2023-04-01T00:33:14;42.64;40.33;51.52;;
4048;Laerm;2038;51.728;6.674;2023-04-01T00:35:55;42.82;39.70;52.22;;
4048;Laerm;2038;51.728;6.674;2023-04-01T00:38:21;43.80;40.53;55.84;;
4048;Laerm;2038;51.728;6.674;2023-04-01T00:40:57;42.85;40.89;50.57;;
4048;Laerm;2038;51.728;6.674;2023-04-01T00:43:24;43.44;40.43;56.91;;
4048;Laerm;2038;51.728;6.674;2023-04-01T00:45:50;42.45;40.13;45.66;;
4048;Laerm;2038;51.728;6.674;2023-04-01T00:48:28;42.73;40.62;47.91;;
4048;Laerm;2038;51.728;6.674;2023-04-01T00:51:29;42.44;40.45;45.30;;
4048;Laerm;2038;51.728;6.674;2023-04-01T00:54:00;42.33;40.33;43.81;;
4048;Laerm;2038;51.728;6.674;2023-04-01T00:57:12;42.42;40.23;45.45;;
4048;Laerm;2038;51.728;6.674;2023-04-01T00:59:54;42.78;40.13;51.84;;
4048;Laerm;2038;51.728;6.674;2023-04-01T01:02:24;43.14;40.53;56.63;;
4048;Laerm;2038;51.728;6.674;2023-04-01T01:04:53;42.91;40.13;54.84;;
4048;Laerm;2038;51.728;6.674;2023-04-01T01:07:44;43.60;39.92;56.31;;
4048;Laerm;2038;51.728;6.674;2023-04-01T01:10:42;42.77;40.13;52.90;;
4048;Laerm;2038;51.728;6.674;2023-04-01T01:13:43;43.57;40.43;58.04;;
4048;Laerm;2038;51.728;6.674;2023-04-01T01:16:27;42.26;40.53;45.80;;
4048;Laerm;2038;51.728;6.674;2023-04-01T01:28:36;43.89;40.23;59.34;;
4048;Laerm;2038;51.728;6.674;2023-04-01T01:37:05;43.44;40.62;56.14;;
4048;Laerm;2038;51.728;6.674;2023-04-01T01:39:35;42.58;40.33;46.05;;
4048;Laerm;2038;51.728;6.674;2023-04-01T01:42:08;42.35;39.99;44.94;;
4048;Laerm;2038;51.728;6.674;2023-04-01T01:44:38;43.46;40.03;56.70;;
4048;Laerm;2038;51.728;6.674;2023-04-01T01:47:07;42.68;40.43;44.76;;
4048;Laerm;2038;51.728;6.674;2023-04-01T01:49:38;42.90;40.80;49.41;;
4048;Laerm;2038;51.728;6.674;2023-04-01T01:52:08;42.59;40.43;45.99;;
4048;Laerm;2038;51.728;6.674;2023-04-01T01:54:49;43.38;40.43;58.49;;
4048;Laerm;2038;51.728;6.674;2023-04-01T01:57:17;43.33;40.36;59.33;;
4048;Laerm;2038;51.728;6.674;2023-04-01T01:59:48;42.38;40.13;45.66;;
4048;Laerm;2038;51.728;6.674;2023-04-01T02:02:16;43.53;40.13;57.69;;
4048;Laerm;2038;51.728;6.674;2023-04-01T02:04:45;42.72;40.62;48.04;;
4048;Laerm;2038;51.728;6.674;2023-04-01T02:07:25;42.51;40.53;44.51;;
4048;Laerm;2038;51.728;6.674;2023-04-01T02:09:56;44.43;40.43;58.84;;
4048;Laerm;2038;51.728;6.674;2023-04-01T02:12:27;44.14;40.62;59.21;;
4048;Laerm;2038;51.728;6.674;2023-04-01T02:15:09;43.26;40.71;58.31;;
4048;Laerm;2038;51.728;6.674;2023-04-01T02:17:44;43.05;40.53;54.50;;
4048;Laerm;2038;51.728;6.674;2023-04-01T02:20:20;42.55;40.43;47.96;;
4048;Laerm;2038;51.728;6.674;2023-04-01T02:22:54;42.40;40.13;44.11;;
4048;Laerm;2038;51.728;6.674;2023-04-01T02:25:33;42.37;39.92;44.87;;
4048;Laerm;2038;51.728;6.674;2023-04-01T02:28:09;43.42;40.53;57.78;;
4048;Laerm;2038;51.728;6.674;2023-04-01T02:30:41;42.44;40.71;57.88;;
4048;Laerm;2038;51.728;6.674;2023-04-01T02:33:11;42.54;40.53;50.83;;
4048;Laerm;2038;51.728;6.674;2023-04-01T02:35:40;42.43;40.71;45.94;;
4048;Laerm;2038;51.728;6.674;2023-04-01T02:38:09;42.59;40.62;52.24;;
4048;Laerm;2038;51.728;6.674;2023-04-01T02:40:51;42.43;40.71;52.81;;
4048;Laerm;2038;51.728;6.674;2023-04-01T02:43:22;43.33;40.71;57.56;;
4048;Laerm;2038;51.728;6.674;2023-04-01T02:45:49;42.60;40.71;46.35;;
4048;Laerm;2038;51.728;6.674;2023-04-01T02:48:15;44.12;40.89;57.06;;
4048;Laerm;2038;51.728;6.674;2023-04-01T02:50:41;42.38;40.53;44.73;;
4048;Laerm;2038;51.728;6.674;2023-04-01T02:53:07;42.42;40.71;44.03;;
4048;Laerm;2038;51.728;6.674;2023-04-01T02:55:34;45.65;40.33;61.11;;
4048;Laerm;2038;51.728;6.674;2023-04-01T02:58:01;42.59;40.43;50.11;;
4048;Laerm;2038;51.728;6.674;2023-04-01T03:00:27;42.24;40.62;46.62;;
4048;Laerm;2038;51.728;6.674;2023-04-01T03:02:53;45.13;40.53;60.47;;
4048;Laerm;2038;51.728;6.674;2023-04-01T03:05:21;42.43;40.80;45.33;;
4048;Laerm;2038;51.728;6.674;2023-04-01T03:07:47;42.76;40.62;53.01;;
4048;Laerm;2038;51.728;6.674;2023-04-01T03:10:14;42.94;40.53;54.56;;
4048;Laerm;2038;51.728;6.674;2023-04-01T03:12:40;42.39;40.43;43.90;;
4048;Laerm;2038;51.728;6.674;2023-04-01T03:15:10;42.77;39.70;50.83;;
4048;Laerm;2038;51.728;6.674;2023-04-01T03:17:38;48.35;40.33;65.56;;
4048;Laerm;2038;51.728;6.674;2023-04-01T03:20:05;44.27;40.33;59.87;;
4048;Laerm;2038;51.728;6.674;2023-04-01T03:22:31;42.37;40.43;47.93;;
4048;Laerm;2038;51.728;6.674;2023-04-01T03:24:58;42.78;40.71;52.56;;
4048;Laerm;2038;51.728;6.674;2023-04-01T03:27:24;42.57;40.23;50.09;;
4048;Laerm;2038;51.728;6.674;2023-04-01T03:29:50;44.13;40.62;57.42;;
4048;Laerm;2038;51.728;6.674;2023-04-01T03:32:16;43.64;40.71;56.88;;
4048;Laerm;2038;51.728;6.674;2023-04-01T03:34:43;45.09;40.62;58.26;;
4048;Laerm;2038;51.728;6.674;2023-04-01T03:37:09;44.47;40.33;56.86;;
4048;Laerm;2038;51.728;6.674;2023-04-01T03:39:35;44.13;40.53;56.18;;
4048;Laerm;2038;51.728;6.674;2023-04-01T03:42:02;43.04;40.53;55.20;;
4048;Laerm;2038;51.728;6.674;2023-04-01T03:44:34;43.86;40.62;57.06;;
4048;Laerm;2038;51.728;6.674;2023-04-01T03:47:01;43.70;40.23;56.02;;
4048;Laerm;2038;51.728;6.674;2023-04-01T03:49:27;42.52;40.53;45.48;;
4048;Laerm;2038;51.728;6.674;2023-04-01T03:51:54;44.04;40.53;59.88;;
4048;Laerm;2038;51.728;6.674;2023-04-01T03:54:20;42.37;40.23;43.90;;
4048;Laerm;2038;51.728;6.674;2023-04-01T03:56:47;44.43;40.33;59.99;;
4048;Laerm;2038;51.728;6.674;2023-04-01T03:59:13;46.54;40.80;62.36;;
4048;Laerm;2038;51.728;6.674;2023-04-01T04:01:39;44.28;40.43;59.44;;
4048;Laerm;2038;51.728;6.674;2023-04-01T04:04:06;44.67;40.53;56.22;;
4048;Laerm;2038;51.728;6.674;2023-04-01T04:06:33;44.16;40.43;60.64;;
4048;Laerm;2038;51.728;6.674;2023-04-01T04:08:59;45.81;40.80;59.73;;
4048;Laerm;2038;51.728;6.674;2023-04-01T04:11:25;48.96;40.43;64.43;;
4048;Laerm;2038;51.728;6.674;2023-04-01T04:13:52;43.60;40.71;54.78;;
4048;Laerm;2038;51.728;6.674;2023-04-01T04:16:18;43.84;40.62;56.75;;
4048;Laerm;2038;51.728;6.674;2023-04-01T04:18:44;42.40;40.43;44.39;;
4048;Laerm;2038;51.728;6.674;2023-04-01T04:21:16;42.38;40.33;47.40;;
4048;Laerm;2038;51.728;6.674;2023-04-01T04:23:43;43.14;40.03;55.58;;
4048;Laerm;2038;51.728;6.674;2023-04-01T04:26:13;45.68;40.89;61.87;;
4048;Laerm;2038;51.728;6.674;2023-04-01T04:28:40;42.41;40.62;50.54;;
4048;Laerm;2038;51.728;6.674;2023-04-01T04:31:06;45.20;40.53;58.54;;
4048;Laerm;2038;51.728;6.674;2023-04-01T04:33:34;44.29;40.71;59.20;;
4048;Laerm;2038;51.728;6.674;2023-04-01T04:36:02;44.01;40.71;57.47;;
4048;Laerm;2038;51.728;6.674;2023-04-01T04:38:30;46.46;40.53;61.19;;
4048;Laerm;2038;51.728;6.674;2023-04-01T04:40:56;46.69;40.43;63.60;;
4048;Laerm;2038;51.728;6.674;2023-04-01T04:43:22;49.61;40.62;65.48;;
4048;Laerm;2038;51.728;6.674;2023-04-01T04:45:49;42.94;40.23;56.57;;
4048;Laerm;2038;51.728;6.674;2023-04-01T04:48:16;44.13;40.80;57.04;;
4048;Laerm;2038;51.728;6.674;2023-04-01T04:50:50;42.63;40.23;52.58;;
4048;Laerm;2038;51.728;6.674;2023-04-01T04:53:18;43.41;40.43;57.25;;
4048;Laerm;2038;51.728;6.674;2023-04-01T04:55:50;44.11;40.53;57.80;;
4048;Laerm;2038;51.728;6.674;2023-04-01T04:58:17;47.57;40.80;63.22;;
4048;Laerm;2038;51.728;6.674;2023-04-01T05:00:44;47.17;40.53;64.07;;
4048;Laerm;2038;51.728;6.674;2023-04-01T05:03:14;47.74;40.71;64.06;;
4048;Laerm;2038;51.728;6.674;2023-04-01T05:05:48;45.54;40.53;57.53;;
4048;Laerm;2038;51.728;6.674;2023-04-01T05:08:16;44.08;40.62;56.76;;
4048;Laerm;2038;51.728;6.674;2023-04-01T05:10:42;43.57;40.53;58.73;;
4048;Laerm;2038;51.728;6.674;2023-04-01T05:13:11;47.38;40.33;61.55;;
4048;Laerm;2038;51.728;6.674;2023-04-01T05:15:39;47.45;40.71;62.21;;
4048;Laerm;2038;51.728;6.674;2023-04-01T05:18:06;43.36;40.62;56.69;;
4048;Laerm;2038;51.728;6.674;2023-04-01T05:20:33;43.76;40.71;55.93;;
4048;Laerm;2038;51.728;6.674;2023-04-01T05:23:00;48.75;40.62;64.70;;
4048;Laerm;2038;51.728;6.674;2023-04-01T05:25:27;45.39;40.79;58.32;;
4048;Laerm;2038;51.728;6.674;2023-04-01T05:27:53;46.20;40.71;59.27;;
4048;Laerm;2038;51.728;6.674;2023-04-01T05:30:20;43.81;40.53;58.19;;
4048;Laerm;2038;51.728;6.674;2023-04-01T05:32:46;43.24;40.33;56.88;;
4048;Laerm;2038;51.728;6.674;2023-04-01T05:35:12;42.52;40.36;55.50;;
4048;Laerm;2038;51.728;6.674;2023-04-01T05:37:38;47.07;40.71;62.83;;
4048;Laerm;2038;51.728;6.674;2023-04-01T05:40:05;49.71;40.53;64.68;;
4048;Laerm;2038;51.728;6.674;2023-04-01T05:42:33;45.42;40.62;65.79;;
4048;Laerm;2038;51.728;6.674;2023-04-01T05:45:00;43.99;40.71;69.98;;
4048;Laerm;2038;51.728;6.674;2023-04-01T05:47:26;42.48;40.53;53.44;;
4048;Laerm;2038;51.728;6.674;2023-04-01T05:49:52;44.98;40.62;61.51;;
4048;Laerm;2038;51.728;6.674;2023-04-01T05:52:18;47.86;40.53;65.44;;
4048;Laerm;2038;51.728;6.674;2023-04-01T05:54:47;43.59;40.53;55.70;;
4048;Laerm;2038;51.728;6.674;2023-04-01T05:57:12;45.78;40.80;58.04;;
4048;Laerm;2038;51.728;6.674;2023-04-01T05:59:38;45.87;40.53;57.19;;
4048;Laerm;2038;51.728;6.674;2023-04-01T06:02:05;44.25;40.53;57.53;;
4048;Laerm;2038;51.728;6.674;2023-04-01T06:04:40;43.64;40.33;56.36;;
4048;Laerm;2038;51.728;6.674;2023-04-01T06:07:16;49.46;39.92;64.65;;
4048;Laerm;2038;51.728;6.674;2023-04-01T06:09:45;46.24;40.98;57.27;;
4048;Laerm;2038;51.728;6.674;2023-04-01T06:15:35;46.57;40.62;62.78;;
4048;Laerm;2038;51.728;6.674;2023-04-01T06:18:56;45.76;40.33;57.96;;
4048;Laerm;2038;51.728;6.674;2023-04-01T06:21:49;47.76;40.89;67.67;;
4048;Laerm;2038;51.728;6.674;2023-04-01T06:33:41;48.27;40.13;62.20;;
4048;Laerm;2038;51.728;6.674;2023-04-01T06:43:25;46.72;40.71;58.44;;
4048;Laerm;2038;51.728;6.674;2023-04-01T06:53:01;46.73;40.98;61.62;;
4048;Laerm;2038;51.728;6.674;2023-04-01T06:55:53;45.12;40.62;58.94;;
4048;Laerm;2038;51.728;6.674;2023-04-01T06:58:30;44.92;40.13;59.79;;
4048;Laerm;2038;51.728;6.674;2023-04-01T07:01:07;45.54;40.71;61.97;;
4048;Laerm;2038;51.728;6.674;2023-04-01T07:03:49;49.75;40.71;70.73;;
4048;Laerm;2038;51.728;6.674;2023-04-01T07:06:31;53.65;40.71;74.38;;
4048;Laerm;2038;51.728;6.674;2023-04-01T07:09:08;45.52;40.89;59.08;;
4048;Laerm;2038;51.728;6.674;2023-04-01T07:11:38;44.68;40.71;59.35;;
4048;Laerm;2038;51.728;6.674;2023-04-01T07:14:29;47.49;40.89;59.87;;
4048;Laerm;2038;51.728;6.674;2023-04-01T07:17:20;52.05;41.22;72.18;;
4048;Laerm;2038;51.728;6.674;2023-04-01T07:20:29;49.91;41.14;72.71;;
4048;Laerm;2038;51.728;6.674;2023-04-01T07:23:05;45.21;40.89;56.07;;
4048;Laerm;2038;51.728;6.674;2023-04-01T07:25:48;46.17;40.98;58.00;;
4048;Laerm;2038;51.728;6.674;2023-04-01T07:28:16;43.95;40.23;56.29;;
4048;Laerm;2038;51.728;6.674;2023-04-01T07:31:03;46.06;40.89;59.03;;
4048;Laerm;2038;51.728;6.674;2023-04-01T07:34:01;46.65;40.79;60.37;;
4048;Laerm;2038;51.728;6.674;2023-04-01T07:36:59;46.93;40.53;57.69;;
4048;Laerm;2038;51.728;6.674;2023-04-01T07:46:34;46.31;40.98;57.83;;
4048;Laerm;2038;51.728;6.674;2023-04-01T07:49:18;45.98;40.80;56.87;;
4048;Laerm;2038;51.728;6.674;2023-04-01T07:55:10;49.83;41.46;61.02;;
4048;Laerm;2038;51.728;6.674;2023-04-01T07:58:24;49.64;41.06;65.07;;
4048;Laerm;2038;51.728;6.674;2023-04-01T08:07:01;47.98;41.19;59.37;;
4048;Laerm;2038;51.728;6.674;2023-04-01T08:10:21;49.15;41.33;60.37;;
4048;Laerm;2038;51.728;6.674;2023-04-01T08:13:43;49.16;41.38;67.42;;
4048;Laerm;2038;51.728;6.674;2023-04-01T08:16:38;50.23;41.68;65.86;;
4048;Laerm;2038;51.728;6.674;2023-04-01T08:20:03;48.73;41.03;63.92;;
4048;Laerm;2038;51.728;6.674;2023-04-01T08:25:29;46.77;40.89;59.57;;
4048;Laerm;2038;51.728;6.674;2023-04-01T08:28:19;49.20;41.46;58.81;;
4048;Laerm;2038;51.728;6.674;2023-04-01T08:31:23;49.47;41.46;61.03;;
4048;Laerm;2038;51.728;6.674;2023-04-01T08:33:54;48.58;41.22;65.32;;
4048;Laerm;2038;51.728;6.674;2023-04-01T08:36:25;49.89;41.30;63.30;;
4048;Laerm;2038;51.728;6.674;2023-04-01T08:39:05;49.97;41.53;66.52;;
4048;Laerm;2038;51.728;6.674;2023-04-01T08:48:07;48.72;40.80;60.19;;
4048;Laerm;2038;51.728;6.674;2023-04-01T08:54:21;51.63;42.03;71.43;;
4048;Laerm;2038;51.728;6.674;2023-04-01T09:00:31;49.69;40.98;62.94;;
4048;Laerm;2038;51.728;6.674;2023-04-01T09:03:37;49.07;41.30;62.88;;
4048;Laerm;2038;51.728;6.674;2023-04-01T09:06:42;50.03;41.22;64.31;;
4048;Laerm;2038;51.728;6.674;2023-04-01T09:09:56;50.37;41.61;63.48;;
4048;Laerm;2038;51.728;6.674;2023-04-01T09:19:14;48.52;41.38;60.88;;
4048;Laerm;2038;51.728;6.674;2023-04-01T09:25:23;49.42;42.41;60.12;;
4048;Laerm;2038;51.728;6.674;2023-04-01T09:28:20;48.36;41.89;63.76;;
4048;Laerm;2038;51.728;6.674;2023-04-01T09:37:41;50.58;41.96;68.77;;
4048;Laerm;2038;51.728;6.674;2023-04-01T09:40:54;48.09;42.82;59.07;;
4048;Laerm;2038;51.728;6.674;2023-04-01T09:43:30;47.89;42.88;56.67;;
4048;Laerm;2038;51.728;6.674;2023-04-01T09:46:14;49.20;42.65;60.24;;
4048;Laerm;2038;51.728;6.674;2023-04-01T09:58:01;49.86;42.53;62.12;;
4048;Laerm;2038;51.728;6.674;2023-04-01T10:04:11;49.04;43.09;58.71;;
4048;Laerm;2038;51.728;6.674;2023-04-01T10:13:55;48.78;42.98;60.75;;
4048;Laerm;2038;51.728;6.674;2023-04-01T10:23:04;51.06;43.29;67.84;;
4048;Laerm;2038;51.728;6.674;2023-04-01T10:25:46;49.41;43.72;61.69;;
4048;Laerm;2038;51.728;6.674;2023-04-01T10:28:53;50.75;42.53;64.83;;
4048;Laerm;2038;51.728;6.674;2023-04-01T10:31:59;48.24;42.16;60.24;;
4048;Laerm;2038;51.728;6.674;2023-04-01T10:41:02;49.48;41.96;60.36;;
4048;Laerm;2038;51.728;6.674;2023-04-01T10:53:18;49.20;42.09;62.89;;
4048;Laerm;2038;51.728;6.674;2023-04-01T10:56:34;48.80;41.96;64.37;;
4048;Laerm;2038;51.728;6.674;2023-04-01T11:02:45;48.38;42.16;58.94;;
4048;Laerm;2038;51.728;6.674;2023-04-01T11:14:55;49.48;42.41;59.15;;
4048;Laerm;2038;51.728;6.674;2023-04-01T11:18:00;47.81;41.61;61.58;;
4048;Laerm;2038;51.728;6.674;2023-04-01T11:20:54;44.72;42.09;57.56;;
4048;Laerm;2038;51.728;6.674;2023-04-01T11:23:38;49.07;42.98;73.03;;
4048;Laerm;2038;51.728;6.674;2023-04-01T11:26:28;49.36;43.49;72.57;;
4048;Laerm;2038;51.728;6.674;2023-04-01T11:29:32;48.20;42.76;65.39;;
4048;Laerm;2038;51.728;6.674;2023-04-01T11:32:43;49.54;42.64;68.63;;
4048;Laerm;2038;51.728;6.674;2023-04-01T11:35:49;50.06;43.14;75.36;;
4048;Laerm;2038;51.728;6.674;2023-04-01T11:38:53;50.13;42.76;69.36;;
4048;Laerm;2038;51.728;6.674;2023-04-01T11:41:56;52.74;42.22;70.47;;
4048;Laerm;2038;51.728;6.674;2023-04-01T11:44:30;49.49;43.09;66.88;;
4048;Laerm;2038;51.728;6.674;2023-04-01T11:47:22;55.30;42.82;79.45;;
4048;Laerm;2038;51.728;6.674;2023-04-01T11:53:00;52.06;43.63;77.09;;
4048;Laerm;2038;51.728;6.674;2023-04-01T11:56:01;51.42;43.49;70.77;;
4048;Laerm;2038;51.728;6.674;2023-04-01T12:05:10;49.63;42.03;63.32;;
4048;Laerm;2038;51.728;6.674;2023-04-01T12:11:00;48.64;42.41;59.75;;
4048;Laerm;2038;51.728;6.674;2023-04-01T12:13:41;55.64;41.22;75.70;;
4048;Laerm;2038;51.728;6.674;2023-04-01T12:16:46;51.32;42.16;68.43;;
4048;Laerm;2038;51.728;6.674;2023-04-01T12:25:22;53.92;43.09;74.71;;
4048;Laerm;2038;51.728;6.674;2023-04-01T12:34:27;48.48;42.09;62.84;;
4048;Laerm;2038;51.728;6.674;2023-04-01T12:37:27;50.31;41.89;68.32;;
4048;Laerm;2038;51.728;6.674;2023-04-01T12:43:59;50.34;42.41;69.72;;
4048;Laerm;2038;51.728;6.674;2023-04-01T12:53:59;48.90;41.82;64.88;;
4048;Laerm;2038;51.728;6.674;2023-04-01T13:00:48;51.42;41.96;67.04;;
4048;Laerm;2038;51.728;6.674;2023-04-01T13:10:17;50.66;41.22;69.92;;
4048;Laerm;2038;51.728;6.674;2023-04-01T13:16:39;46.39;41.30;58.54;;
4048;Laerm;2038;51.728;6.674;2023-04-01T13:22:41;54.12;41.53;75.36;;
4048;Laerm;2038;51.728;6.674;2023-04-01T13:28:41;49.57;41.96;66.32;;
4048;Laerm;2038;51.728;6.674;2023-04-01T13:31:55;48.56;41.68;68.49;;
4048;Laerm;2038;51.728;6.674;2023-04-01T13:35:54;49.48;41.61;63.64;;
4048;Laerm;2038;51.728;6.674;2023-04-01T13:38:37;47.93;41.61;60.58;;
4048;Laerm;2038;51.728;6.674;2023-04-01T14:00:30;48.75;42.29;60.50;;
4048;Laerm;2038;51.728;6.674;2023-04-01T14:06:45;49.98;43.34;58.68;;
4048;Laerm;2038;51.728;6.674;2023-04-01T14:12:44;49.22;41.82;58.58;;
4048;Laerm;2038;51.728;6.674;2023-04-01T14:16:04;46.16;41.38;62.10;;
4048;Laerm;2038;51.728;6.674;2023-04-01T14:40:19;46.16;41.68;57.83;;
4048;Laerm;2038;51.728;6.674;2023-04-01T14:43:36;46.70;41.61;61.80;;
4048;Laerm;2038;51.728;6.674;2023-04-01T14:49:43;48.49;41.53;61.35;;
4048;Laerm;2038;51.728;6.674;2023-04-01T14:52:27;46.87;41.75;62.15;;
4048;Laerm;2038;51.728;6.674;2023-04-01T14:54:56;47.36;42.03;58.45;;
4048;Laerm;2038;51.728;6.674;2023-04-01T14:57:28;47.73;42.53;60.71;;
4048;Laerm;2038;51.728;6.674;2023-04-01T15:00:17;49.41;42.47;60.21;;
4048;Laerm;2038;51.728;6.674;2023-04-01T15:02:58;49.77;42.22;61.43;;
4048;Laerm;2038;51.728;6.674;2023-04-01T15:06:32;50.19;43.09;61.18;;
4048;Laerm;2038;51.728;6.674;2023-04-01T15:09:15;48.86;43.44;59.60;;
4048;Laerm;2038;51.728;6.674;2023-04-01T15:17:22;49.94;42.85;63.14;;
4048;Laerm;2038;51.728;6.674;2023-04-01T15:21:02;48.76;41.75;64.54;;
4048;Laerm;2038;51.728;6.674;2023-04-01T15:26:36;47.50;41.46;60.48;;
4048;Laerm;2038;51.728;6.674;2023-04-01T15:32:14;48.59;41.38;65.39;;
4048;Laerm;2038;51.728;6.674;2023-04-01T15:38:31;46.01;41.22;59.26;;
4048;Laerm;2038;51.728;6.674;2023-04-01T15:43:45;50.81;41.30;66.84;;
4048;Laerm;2038;51.728;6.674;2023-04-01T15:46:41;50.34;41.22;68.65;;
4048;Laerm;2038;51.728;6.674;2023-04-01T15:49:37;47.20;41.68;58.84;;
4048;Laerm;2038;51.728;6.674;2023-04-01T15:55:39;50.52;42.47;59.32;;
4048;Laerm;2038;51.728;6.674;2023-04-01T16:01:26;51.81;42.47;59.97;;
4048;Laerm;2038;51.728;6.674;2023-04-01T16:04:20;52.62;42.98;63.98;;
4048;Laerm;2038;51.728;6.674;2023-04-01T16:21:44;49.04;41.33;65.54;;
4048;Laerm;2038;51.728;6.674;2023-04-01T16:24:38;49.89;42.22;71.35;;
4048;Laerm;2038;51.728;6.674;2023-04-01T16:38:36;49.31;41.22;62.31;;
4048;Laerm;2038;51.728;6.674;2023-04-01T16:44:08;45.87;41.22;57.90;;
4048;Laerm;2038;51.728;6.674;2023-04-01T16:46:41;47.30;41.68;59.56;;
4048;Laerm;2038;51.728;6.674;2023-04-01T16:51:48;55.51;41.38;76.80;;
4048;Laerm;2038;51.728;6.674;2023-04-01T16:54:47;47.69;41.68;63.21;;
4048;Laerm;2038;51.728;6.674;2023-04-01T16:57:25;47.89;41.61;59.09;;
4048;Laerm;2038;51.728;6.674;2023-04-01T17:00:26;48.29;41.22;58.54;;
4048;Laerm;2038;51.728;6.674;2023-04-01T17:03:11;49.59;41.30;69.16;;
4048;Laerm;2038;51.728;6.674;2023-04-01T17:06:06;47.20;41.53;64.77;;
4048;Laerm;2038;51.728;6.674;2023-04-01T17:14:52;50.05;42.29;69.25;;
4048;Laerm;2038;51.728;6.674;2023-04-01T17:17:58;49.69;41.68;60.95;;
4048;Laerm;2038;51.728;6.674;2023-04-01T17:23:34;44.89;40.80;58.97;;
4048;Laerm;2038;51.728;6.674;2023-04-01T17:26:20;48.08;41.14;60.33;;
4048;Laerm;2038;51.728;6.674;2023-04-01T17:32:11;47.79;40.96;60.71;;
4048;Laerm;2038;51.728;6.674;2023-04-01T17:35:03;45.95;40.62;61.59;;
4048;Laerm;2038;51.728;6.674;2023-04-01T17:37:59;48.33;41.06;59.88;;
4048;Laerm;2038;51.728;6.674;2023-04-01T17:41:00;46.58;41.30;58.06;;
4048;Laerm;2038;51.728;6.674;2023-04-01T17:49:37;44.01;40.89;57.51;;
4048;Laerm;2038;51.728;6.674;2023-04-01T17:52:30;46.49;40.71;57.99;;
4048;Laerm;2038;51.728;6.674;2023-04-01T18:01:42;47.27;41.06;60.24;;
4048;Laerm;2038;51.728;6.674;2023-04-01T18:07:45;46.11;40.53;61.26;;
4048;Laerm;2038;51.728;6.674;2023-04-01T18:10:31;48.97;40.62;68.04;;
4048;Laerm;2038;51.728;6.674;2023-04-01T18:16:24;43.24;40.23;55.87;;
4048;Laerm;2038;51.728;6.674;2023-04-01T18:19:02;46.88;41.06;66.26;;
4048;Laerm;2038;51.728;6.674;2023-04-01T18:24:58;44.61;40.89;57.64;;
4048;Laerm;2038;51.728;6.674;2023-04-01T18:27:40;45.10;40.80;59.11;;
4048;Laerm;2038;51.728;6.674;2023-04-01T18:30:22;44.72;40.80;59.14;;
4048;Laerm;2038;51.728;6.674;2023-04-01T18:33:17;46.14;40.53;58.39;;
4048;Laerm;2038;51.728;6.674;2023-04-01T18:36:02;45.31;40.62;57.32;;
4048;Laerm;2038;51.728;6.674;2023-04-01T18:38:40;45.35;40.53;59.08;;
4048;Laerm;2038;51.728;6.674;2023-04-01T18:41:25;46.55;40.96;63.06;;
4048;Laerm;2038;51.728;6.674;2023-04-01T18:44:36;45.05;40.62;61.34;;
4048;Laerm;2038;51.728;6.674;2023-04-01T18:53:34;44.61;40.53;58.01;;
4048;Laerm;2038;51.728;6.674;2023-04-01T18:56:09;46.34;40.43;59.47;;
4048;Laerm;2038;51.728;6.674;2023-04-01T18:58:59;46.99;40.89;59.53;;
4048;Laerm;2038;51.728;6.674;2023-04-01T19:01:36;46.00;40.71;59.84;;
4048;Laerm;2038;51.728;6.674;2023-04-01T19:06:59;45.92;41.06;58.05;;
4048;Laerm;2038;51.728;6.674;2023-04-01T19:09:45;43.29;40.62;53.88;;
4048;Laerm;2038;51.728;6.674;2023-04-01T19:15:28;45.54;40.71;56.28;;
4048;Laerm;2038;51.728;6.674;2023-04-01T19:21:15;45.68;40.62;59.97;;
4048;Laerm;2038;51.728;6.674;2023-04-01T19:26:46;42.61;40.62;50.25;;
4048;Laerm;2038;51.728;6.674;2023-04-01T19:35:29;44.84;39.58;60.04;;
4048;Laerm;2038;51.728;6.674;2023-04-01T19:46:44;45.90;40.89;60.17;;
4048;Laerm;2038;51.728;6.674;2023-04-01T19:49:47;45.16;39.92;59.16;;
4048;Laerm;2038;51.728;6.674;2023-04-01T19:52:31;43.68;39.34;57.69;;
4048;Laerm;2038;51.728;6.674;2023-04-01T20:00:57;43.34;40.03;53.31;;
4048;Laerm;2038;51.728;6.674;2023-04-01T20:04:03;45.43;40.23;60.37;;
4048;Laerm;2038;51.728;6.674;2023-04-01T20:06:58;46.27;40.62;58.62;;
4048;Laerm;2038;51.728;6.674;2023-04-01T20:10:06;44.09;40.33;56.65;;
4048;Laerm;2038;51.728;6.674;2023-04-01T20:12:50;43.59;40.33;58.61;;
4048;Laerm;2038;51.728;6.674;2023-04-01T20:15:29;43.42;40.43;57.21;;
4048;Laerm;2038;51.728;6.674;2023-04-01T20:18:04;45.05;40.13;58.03;;
4048;Laerm;2038;51.728;6.674;2023-04-01T20:20:39;44.89;40.13;59.23;;
4048;Laerm;2038;51.728;6.674;2023-04-01T20:23:30;44.56;40.23;56.30;;
4048;Laerm;2038;51.728;6.674;2023-04-01T20:26:05;42.72;40.13;55.38;;
4048;Laerm;2038;51.728;6.674;2023-04-01T20:29:35;42.52;39.81;52.15;;
4048;Laerm;2038;51.728;6.674;2023-04-01T20:31:47;44.78;39.92;60.50;;
4048;Laerm;2038;51.728;6.674;2023-04-01T20:37:33;47.59;40.03;62.38;;
4048;Laerm;2038;51.728;6.674;2023-04-01T20:40:31;43.16;40.43;56.05;;
4048;Laerm;2038;51.728;6.674;2023-04-01T20:43:35;44.25;40.62;60.65;;
4048;Laerm;2038;51.728;6.674;2023-04-01T20:55:24;44.52;40.62;67.52;;
4048;Laerm;2038;51.728;6.674;2023-04-01T20:58:12;43.30;39.21;54.70;;
4048;Laerm;2038;51.728;6.674;2023-04-01T21:01:19;43.75;40.13;57.56;;
4048;Laerm;2038;51.728;6.674;2023-04-01T21:23:42;43.82;39.58;58.82;;
4048;Laerm;2038;51.728;6.674;2023-04-01T21:30:19;46.15;41.14;63.27;;
4048;Laerm;2038;51.728;6.674;2023-04-01T21:40:02;43.35;40.03;60.89;;
4048;Laerm;2038;51.728;6.674;2023-04-01T21:46:44;44.06;40.03;60.77;;
4048;Laerm;2038;51.728;6.674;2023-04-01T21:49:27;46.01;40.03;58.37;;
4048;Laerm;2038;51.728;6.674;2023-04-01T22:07:46;43.21;39.92;57.01;;
4048;Laerm;2038;51.728;6.674;2023-04-01T22:13:40;43.51;39.70;55.81;;
4048;Laerm;2038;51.728;6.674;2023-04-01T22:16:24;46.49;39.89;65.40;;
4048;Laerm;2038;51.728;6.674;2023-04-01T22:21:56;43.10;39.70;53.50;;
4048;Laerm;2038;51.728;6.674;2023-04-01T22:24:50;43.85;40.13;58.93;;
4048;Laerm;2038;51.728;6.674;2023-04-01T22:27:32;42.30;39.70;51.05;;
4048;Laerm;2038;51.728;6.674;2023-04-01T22:30:24;45.80;40.03;61.62;;
4048;Laerm;2038;51.728;6.674;2023-04-01T22:33:32;44.37;39.92;56.49;;
4048;Laerm;2038;51.728;6.674;2023-04-01T22:36:45;43.52;39.34;55.59;;
4048;Laerm;2038;51.728;6.674;2023-04-01T22:48:32;43.62;39.92;60.83;;
4048;Laerm;2038;51.728;6.674;2023-04-01T22:51:17;43.39;39.70;60.99;;
4048;Laerm;2038;51.728;6.674;2023-04-01T22:54:18;44.10;40.23;62.19;;
4048;Laerm;2038;51.728;6.674;2023-04-01T22:56:56;43.21;39.70;53.59;;
4048;Laerm;2038;51.728;6.674;2023-04-01T22:59:39;44.21;40.03;54.30;;
4048;Laerm;2038;51.728;6.674;2023-04-01T23:02:18;49.78;39.46;66.86;;
4048;Laerm;2038;51.728;6.674;2023-04-01T23:04:54;43.16;39.46;59.08;;
4048;Laerm;2038;51.728;6.674;2023-04-01T23:10:15;43.05;39.92;54.66;;